Time;durP1;ratioP1;P1;durP2;ratioP2;P2;SDS_P1;SDS_P2;PMS_P1;PMS_P2;Temp;Humidity;BMP_temperature;BMP_pressure;BME280_temperature;BME280_humidity;BME280_pressure;Samples;Min_cycle;Max_cycle;Signal;HPM_P1;HPM_P2
2022/04/19 00:00:39;;;;;;;7.90;4.50;;;8.90;99.90;;;;;;4995162;28;20038;-73
2022/04/19 00:03:06;;;;;;;7.05;4.07;;;8.80;99.90;;;;;;4995469;28;20039;-73
2022/04/19 00:05:32;;;;;;;8.55;4.93;;;8.90;99.90;;;;;;4994891;28;20391;-73
2022/04/19 00:08:02;;;;;;;10.15;5.13;;;8.80;99.90;;;;;;5011059;28;20095;-73
2022/04/19 00:10:28;;;;;;;8.38;4.80;;;8.80;99.90;;;;;;4979241;28;20112;-73
2022/04/19 00:12:55;;;;;;;8.45;4.95;;;8.80;99.90;;;;;;4995273;28;20153;-73
2022/04/19 00:15:22;;;;;;;8.60;5.18;;;8.60;99.90;;;;;;4994865;28;20034;-73
2022/04/19 00:17:48;;;;;;;8.52;5.20;;;8.50;99.90;;;;;;4995103;28;20049;-73
2022/04/19 00:20:14;;;;;;;8.48;5.60;;;8.50;99.90;;;;;;5018087;28;20515;-73
2022/04/19 00:22:40;;;;;;;8.32;4.88;;;8.50;99.90;;;;;;5008340;28;20054;-73
2022/04/19 00:25:07;;;;;;;7.70;4.57;;;8.40;99.90;;;;;;4986498;28;20045;-73
2022/04/19 00:27:33;;;;;;;10.80;5.50;;;8.40;99.90;;;;;;4975578;28;20101;-73
2022/04/19 00:29:59;;;;;;;7.97;4.57;;;8.40;99.90;;;;;;5015900;28;20034;-73
2022/04/19 00:32:24;;;;;;;8.65;5.20;;;8.40;99.90;;;;;;4994796;28;20045;-73
2022/04/19 00:34:51;;;;;;;10.30;5.97;;;8.40;99.90;;;;;;4994938;28;20038;-73
2022/04/19 00:37:18;;;;;;;8.55;5.22;;;8.40;99.90;;;;;;4994883;28;20045;-73
2022/04/19 00:39:43;;;;;;;11.20;6.35;;;8.30;99.90;;;;;;4994980;28;20081;-73
2022/04/19 00:42:09;;;;;;;8.35;5.40;;;8.30;99.90;;;;;;4994331;28;20042;-73
2022/04/19 00:44:37;;;;;;;8.55;4.93;;;8.30;99.90;;;;;;5027592;28;20073;-73
2022/04/19 00:47:09;;;;;;;8.43;5.18;;;8.40;99.90;;;;;;4994293;28;20406;-73
2022/04/19 00:49:36;;;;;;;;;;;8.40;99.90;;;;;;5011335;28;20045;-73
2022/04/19 00:52:02;;;;;;;8.93;5.32;;;8.30;99.90;;;;;;4994166;28;19928;-73
2022/04/19 00:54:29;;;;;;;10.07;6.38;;;8.20;99.90;;;;;;5026964;28;20077;-73
2022/04/19 00:56:55;;;;;;;9.30;6.20;;;8.10;99.90;;;;;;5026820;28;20258;-72
2022/04/19 00:59:22;;;;;;;10.18;5.78;;;8.00;99.90;;;;;;4994036;28;20074;-73
2022/04/19 01:01:49;;;;;;;9.57;5.63;;;7.90;99.90;;;;;;4994738;28;20049;-72
2022/04/19 01:04:15;;;;;;;12.15;6.07;;;7.90;99.90;;;;;;4977850;28;20569;-73
2022/04/19 01:06:41;;;;;;;9.50;6.57;;;7.90;99.90;;;;;;4994554;28;20031;-72
2022/04/19 01:09:06;;;;;;;8.30;5.60;;;8.00;99.90;;;;;;4993781;28;20046;-73
2022/04/19 01:14:18;;;;;;;9.85;5.78;;;7.80;99.90;;;;;;4993731;28;20077;-73
2022/04/19 01:16:43;;;;;;;11.63;6.30;;;7.70;99.90;;;;;;5026064;28;20513;-73
2022/04/19 01:19:17;;;;;;;8.52;5.18;;;7.70;99.90;;;;;;4994047;28;20069;-73
2022/04/19 01:21:48;;;;;;;8.45;5.50;;;7.80;99.90;;;;;;5026216;28;20133;-73
2022/04/19 01:24:21;;;;;;;10.30;5.43;;;7.80;99.90;;;;;;4992913;28;20046;-73
2022/04/19 01:26:48;;;;;;;9.77;5.63;;;7.80;99.90;;;;;;4978036;28;20116;-73
2022/04/19 01:29:15;;;;;;;10.05;6.18;;;7.80;99.90;;;;;;4992064;28;20053;-73
2022/04/19 01:31:42;;;;;;;12.25;7.43;;;7.80;99.90;;;;;;4965514;28;20124;-73
2022/04/19 01:34:08;;;;;;;12.38;6.50;;;7.70;99.90;;;;;;5024631;28;20591;-73
2022/04/19 01:36:35;;;;;;;10.68;6.43;;;7.70;99.90;;;;;;4971716;28;20077;-73
2022/04/19 01:39:03;;;;;;;10.27;6.45;;;7.70;99.90;;;;;;4996420;28;20050;-73
2022/04/19 01:41:29;;;;;;;11.27;6.47;;;7.60;99.90;;;;;;4977250;28;20039;-73
2022/04/19 01:43:54;;;;;;;10.65;6.47;;;7.50;99.90;;;;;;4977081;28;20045;-73
2022/04/19 01:46:20;;;;;;;10.75;7.07;;;7.60;99.90;;;;;;4980342;28;20039;-73
2022/04/19 01:48:46;;;;;;;10.63;7.00;;;7.60;99.90;;;;;;5006218;28;20108;-73
2022/04/19 01:51:12;;;;;;;10.95;6.82;;;7.50;99.90;;;;;;5006565;28;20050;-73
2022/04/19 01:53:37;;;;;;;10.73;6.18;;;7.50;99.90;;;;;;4974019;28;20087;-73
2022/04/19 01:56:03;;;;;;;9.75;6.13;;;7.60;99.90;;;;;;4985809;28;20498;-73
2022/04/19 01:58:29;;;;;;;11.45;6.53;;;7.50;99.90;;;;;;4977322;28;20034;-73
2022/04/19 02:00:54;;;;;;;10.65;6.20;;;7.50;99.90;;;;;;4993334;28;20038;-73
2022/04/19 02:03:20;;;;;;;10.07;6.45;;;7.50;99.90;;;;;;4993257;28;20069;-73
2022/04/19 02:05:46;;;;;;;10.13;6.00;;;7.40;99.90;;;;;;4976963;28;20043;-73
2022/04/19 02:08:11;;;;;;;9.85;6.03;;;7.40;99.90;;;;;;4976805;28;20045;-73
2022/04/19 02:10:37;;;;;;;13.45;7.25;;;7.40;99.90;;;;;;4992706;28;20045;-73
2022/04/19 02:13:03;;;;;;;11.40;6.68;;;7.40;99.90;;;;;;4992916;28;20035;-73
2022/04/19 02:15:29;;;;;;;12.60;6.90;;;7.30;99.90;;;;;;4993150;28;20068;-73
2022/04/19 02:17:54;;;;;;;10.25;6.43;;;7.20;99.90;;;;;;4977176;28;20557;-73
2022/04/19 02:20:20;;;;;;;13.63;8.32;;;7.20;99.90;;;;;;4992744;28;20137;-73
2022/04/19 02:22:46;;;;;;;13.35;7.90;;;7.20;99.90;;;;;;4993066;28;20380;-72
2022/04/19 02:25:15;;;;;;;13.88;7.70;;;7.20;99.90;;;;;;4993177;28;20390;-73
2022/04/19 02:27:42;;;;;;;12.75;8.02;;;7.20;99.90;;;;;;4992907;28;20038;-73
2022/04/19 02:30:15;;;;;;;12.63;7.47;;;7.00;99.90;;;;;;4992784;28;20046;-73
2022/04/19 02:32:45;;;;;;;12.45;7.97;;;7.00;99.90;;;;;;4976447;28;20065;-73
2022/04/19 02:35:14;;;;;;;12.25;7.68;;;7.00;99.90;;;;;;4976528;28;20034;-73
2022/04/19 02:37:50;;;;;;;12.65;7.40;;;7.00;99.90;;;;;;5025865;28;20444;-73
2022/04/19 02:40:17;;;;;;;13.75;8.05;;;6.90;99.90;;;;;;4976624;28;20073;-73
2022/04/19 02:42:43;;;;;;;11.45;7.25;;;6.90;99.90;;;;;;5018872;28;20076;-73
2022/04/19 02:45:09;;;;;;;11.80;7.28;;;6.80;99.90;;;;;;4984222;28;20161;-73
2022/04/19 02:47:34;;;;;;;11.68;7.13;;;6.80;99.90;;;;;;4990173;28;20450;-73
2022/04/19 02:50:01;;;;;;;14.88;7.80;;;6.80;99.90;;;;;;4987716;28;20038;-73
2022/04/19 02:52:27;;;;;;;14.52;7.53;;;6.80;99.90;;;;;;4992055;28;20042;-73
2022/04/19 02:54:53;;;;;;;13.82;7.85;;;6.80;99.90;;;;;;4989261;28;20038;-73
2022/04/19 02:57:18;;;;;;;13.80;8.50;;;6.80;99.90;;;;;;4986689;28;20049;-73
2022/04/19 02:59:45;;;;;;;13.63;8.52;;;6.70;99.90;;;;;;4992605;28;20034;-73
2022/04/19 03:02:11;;;;;;;15.90;8.98;;;6.70;99.90;;;;;;4992508;28;20125;-73
2022/04/19 03:04:37;;;;;;;13.45;8.05;;;6.60;99.90;;;;;;4992773;28;20133;-73
2022/04/19 03:07:05;;;;;;;12.18;8.18;;;6.60;99.90;;;;;;4992560;28;20101;-73
2022/04/19 03:09:31;;;;;;;11.98;6.82;;;6.70;99.90;;;;;;4976102;28;20038;-73
2022/04/19 03:11:57;;;;;;;10.43;6.45;;;6.80;99.90;;;;;;4976374;28;20039;-73
2022/04/19 03:14:22;;;;;;;11.02;6.38;;;6.90;99.90;;;;;;4976555;28;20096;-73
2022/04/19 03:16:48;;;;;;;11.20;6.82;;;6.90;99.90;;;;;;4976259;28;20039;-73
2022/04/19 03:19:14;;;;;;;11.50;7.30;;;6.90;99.90;;;;;;4992177;28;20042;-72
2022/04/19 03:21:40;;;;;;;10.45;6.03;;;6.90;99.90;;;;;;4992328;28;20054;-73
2022/04/19 03:29:34;;;;;;;11.45;7.57;;;6.70;99.90;;;;;;5012374;28;20046;-73
2022/04/19 03:32:01;;;;;;;12.70;7.70;;;6.70;99.90;;;;;;4996046;28;20043;-73
2022/04/19 03:34:27;;;;;;;12.13;7.35;;;6.80;99.90;;;;;;4996041;28;20049;-73
2022/04/19 03:36:52;;;;;;;13.43;8.43;;;6.70;99.90;;;;;;4979831;28;20042;-73
2022/04/19 03:39:18;;;;;;;12.93;8.98;;;6.70;99.90;;;;;;4995925;28;20065;-73
2022/04/19 03:41:44;;;;;;;14.35;8.07;;;6.60;99.90;;;;;;4995901;28;20387;-73
2022/04/19 03:44:11;;;;;;;14.88;8.27;;;6.60;99.90;;;;;;4995846;28;20046;-73
2022/04/19 03:47:07;;;;;;;13.38;8.15;;;6.60;99.90;;;;;;4979442;28;20042;-73
2022/04/19 03:49:24;;;;;;;13.60;8.73;;;6.60;99.90;;;;;;4995932;28;20057;-73
2022/04/19 03:51:50;;;;;;;11.63;7.53;;;6.40;99.90;;;;;;4995684;28;20035;-73
2022/04/19 03:54:16;;;;;;;13.05;7.80;;;6.50;99.90;;;;;;5028466;28;20038;-73
2022/04/19 03:56:42;;;;;;;13.00;7.80;;;6.60;99.90;;;;;;5028461;28;20080;-73
2022/04/19 03:59:09;;;;;;;13.00;7.80;;;6.50;99.90;;;;;;5028427;28;20073;-73
2022/04/19 04:01:37;;;;;;;13.77;7.53;;;6.50;99.90;;;;;;5028479;28;20058;-73
2022/04/19 04:04:03;;;;;;;13.25;8.20;;;6.60;99.90;;;;;;4995564;28;20038;-73
2022/04/19 04:06:28;;;;;;;13.15;9.07;;;6.50;99.90;;;;;;5028394;28;20088;-73
2022/04/19 04:08:54;;;;;;;13.05;7.43;;;6.40;99.90;;;;;;4995400;28;20108;-73
2022/04/19 04:11:20;;;;;;;13.98;8.23;;;6.40;99.90;;;;;;5011568;28;20081;-73
2022/04/19 04:13:45;;;;;;;11.82;7.75;;;6.40;99.90;;;;;;5027114;28;20113;-73
2022/04/19 04:16:11;;;;;;;15.73;8.13;;;6.40;99.90;;;;;;4995255;28;20050;-73
2022/04/19 04:18:39;;;;;;;12.25;8.07;;;6.40;99.90;;;;;;4979136;28;20034;-73
2022/04/19 04:21:05;;;;;;;13.10;7.97;;;6.40;99.90;;;;;;4978804;28;20069;-73
2022/04/19 04:23:33;;;;;;;12.95;7.88;;;6.40;99.90;;;;;;4995137;28;20050;-73
2022/04/19 04:25:59;;;;;;;13.57;8.10;;;6.40;99.90;;;;;;5027897;28;20121;-73
2022/04/19 04:28:25;;;;;;;12.32;7.57;;;6.40;99.90;;;;;;5028053;28;20569;-73
2022/04/19 04:30:51;;;;;;;13.70;7.80;;;6.40;99.90;;;;;;4994170;28;20046;-73
2022/04/19 04:33:16;;;;;;;12.85;8.35;;;6.40;99.90;;;;;;4978871;28;20105;-73
2022/04/19 04:35:42;;;;;;;13.18;7.93;;;6.40;99.90;;;;;;4978131;28;20125;-73
2022/04/19 04:38:07;;;;;;;12.63;8.43;;;6.30;99.90;;;;;;4991744;28;20129;-73
2022/04/19 04:40:33;;;;;;;12.13;7.88;;;6.40;99.90;;;;;;4959244;28;20041;-73
2022/04/19 04:42:59;;;;;;;12.25;7.60;;;6.40;99.90;;;;;;5007912;28;20469;-73
2022/04/19 04:45:25;;;;;;;11.90;7.43;;;6.40;99.90;;;;;;5008092;28;20050;-73
2022/04/19 04:50:35;;;;;;;12.40;7.40;;;6.40;99.90;;;;;;4991431;28;20136;-73
2022/04/19 04:53:00;;;;;;;13.07;7.25;;;6.50;99.90;;;;;;4994507;28;20459;-73
2022/04/19 04:55:26;;;;;;;11.70;7.28;;;6.50;99.90;;;;;;4994665;28;20482;-73
2022/04/19 04:57:56;;;;;;;12.85;8.13;;;6.50;99.90;;;;;;4994578;28;20431;-73
2022/04/19 05:00:22;;;;;;;14.48;8.10;;;6.50;99.90;;;;;;5010715;28;20545;-73
2022/04/19 05:02:47;;;;;;;13.05;7.40;;;6.50;99.90;;;;;;4994500;28;20042;-73
2022/04/19 05:05:13;;;;;;;11.68;7.88;;;6.50;99.90;;;;;;4978173;28;20500;-73
2022/04/19 05:07:39;;;;;;;13.35;8.48;;;6.50;99.90;;;;;;4994274;28;20129;-73
2022/04/19 05:10:06;;;;;;;13.30;7.50;;;6.50;99.90;;;;;;5010816;28;20116;-73
2022/04/19 05:12:31;;;;;;;15.63;8.45;;;6.60;99.90;;;;;;5026908;28;20085;-74
2022/04/19 05:14:57;;;;;;;10.88;6.80;;;6.60;99.90;;;;;;4994177;28;20046;-73
2022/04/19 05:17:23;;;;;;;12.20;7.20;;;6.60;99.90;;;;;;5027091;28;20522;-73
2022/04/19 05:19:48;;;;;;;13.98;7.78;;;6.70;99.90;;;;;;5010243;28;20137;-74
2022/04/19 05:22:14;;;;;;;14.35;8.63;;;6.70;99.90;;;;;;4994277;28;20057;-73
2022/04/19 05:24:40;;;;;;;12.90;7.88;;;6.70;99.90;;;;;;4993990;28;20092;-73
2022/04/19 05:27:05;;;;;;;12.68;8.00;;;6.70;99.90;;;;;;5026988;28;20050;-73
2022/04/19 05:29:31;;;;;;;14.60;7.97;;;6.80;99.90;;;;;;5010533;28;20045;-73
2022/04/19 05:31:57;;;;;;;13.82;8.10;;;6.80;99.90;;;;;;4998457;28;20073;-73
2022/04/19 05:34:23;;;;;;;12.70;8.43;;;6.80;99.90;;;;;;4985913;28;20073;-73
2022/04/19 05:36:48;;;;;;;14.20;8.20;;;6.90;99.90;;;;;;4994254;28;20387;-73
2022/04/19 05:39:14;;;;;;;13.48;7.90;;;6.90;99.90;;;;;;4977797;28;20307;-73
2022/04/19 05:41:40;;;;;;;14.23;8.02;;;7.00;99.90;;;;;;4974085;28;20050;-73
2022/04/19 05:44:06;;;;;;;13.38;7.25;;;7.00;99.90;;;;;;4960866;28;20038;-73
2022/04/19 05:46:32;;;;;;;12.73;8.10;;;7.10;99.90;;;;;;4976156;28;20049;-73
2022/04/19 05:48:58;;;;;;;14.05;8.05;;;7.20;99.90;;;;;;4994400;28;20045;-73
2022/04/19 05:51:24;;;;;;;13.70;8.48;;;7.20;99.90;;;;;;4992791;28;20042;-73
2022/04/19 05:53:50;;;;;;;15.65;8.52;;;7.30;99.90;;;;;;5025831;28;20104;-73
2022/04/19 05:56:15;;;;;;;14.07;8.52;;;7.40;99.90;;;;;;4991794;28;20034;-73
2022/04/19 05:58:41;;;;;;;13.90;9.02;;;7.50;99.90;;;;;;4977029;28;20053;-73
2022/04/19 06:01:06;;;;;;;14.00;8.75;;;7.50;99.90;;;;;;5019269;28;20054;-74
2022/04/19 06:06:16;;;;;;;16.40;8.77;;;7.70;99.90;;;;;;4992853;28;20050;-74
2022/04/19 06:08:43;;;;;;;12.90;7.82;;;8.00;99.90;;;;;;4975489;28;20040;-74
2022/04/19 06:11:11;;;;;;;12.98;7.72;;;8.10;99.90;;;;;;4992284;28;20120;-74
2022/04/19 06:13:37;;;;;;;15.43;8.40;;;8.10;99.90;;;;;;4975796;28;20066;-74
2022/04/19 06:16:02;;;;;;;14.73;8.68;;;8.20;99.90;;;;;;5024699;28;20049;-73
2022/04/19 06:18:28;;;;;;;13.38;8.57;;;8.30;99.90;;;;;;4992653;28;20090;-74
2022/04/19 06:20:54;;;;;;;13.55;8.20;;;8.30;99.90;;;;;;4991510;28;20498;-75
2022/04/19 06:23:20;;;;;;;12.90;8.13;;;8.40;99.90;;;;;;5005001;28;20053;-78
2022/04/19 06:25:46;;;;;;;13.68;7.82;;;8.50;99.90;;;;;;4992348;28;20074;-78
2022/04/19 06:28:11;;;;;;;14.82;7.38;;;8.70;99.90;;;;;;4976312;28;20102;-78
2022/04/19 06:30:38;;;;;;;14.35;8.73;;;8.90;99.90;;;;;;4992220;28;20097;-79
2022/04/19 06:33:03;;;;;;;16.65;8.30;;;9.00;99.90;;;;;;4976063;28;20043;-78
2022/04/19 06:35:29;;;;;;;13.80;9.02;;;9.10;99.90;;;;;;4982114;28;20407;-79
2022/04/19 06:37:55;;;;;;;14.63;8.88;;;9.10;99.90;;;;;;4975436;28;20127;-80
2022/04/19 06:40:20;;;;;;;16.27;8.68;;;9.10;99.90;;;;;;4984588;28;20045;-77
2022/04/19 06:42:46;;;;;;;12.05;7.75;;;9.20;99.90;;;;;;4991411;28;20038;-77
2022/04/19 06:45:11;;;;;;;14.30;8.90;;;9.30;99.90;;;;;;4976025;28;20038;-74
2022/04/19 06:47:38;;;;;;;15.63;9.13;;;9.30;99.90;;;;;;4992200;28;20177;-73
2022/04/19 06:50:04;;;;;;;12.80;8.23;;;9.40;99.90;;;;;;5026962;28;20042;-75
2022/04/19 06:52:30;;;;;;;13.77;8.30;;;9.50;99.90;;;;;;5021793;28;20042;-75
2022/04/19 06:54:56;;;;;;;12.40;7.82;;;9.60;99.90;;;;;;4975374;28;20109;-75
2022/04/19 06:57:22;;;;;;;13.68;7.68;;;9.80;99.90;;;;;;4977446;28;20049;-77
2022/04/19 06:59:47;;;;;;;14.65;7.57;;;9.80;99.90;;;;;;4998553;28;20034;-77
2022/04/19 07:02:13;;;;;;;13.73;7.78;;;10.10;99.90;;;;;;5012017;28;20130;-77
2022/04/19 07:04:39;;;;;;;13.40;7.65;;;10.20;99.90;;;;;;4995564;28;20045;-77
2022/04/19 07:07:07;;;;;;;12.77;8.05;;;10.30;99.90;;;;;;5031353;28;20050;-77
2022/04/19 07:09:33;;;;;;;13.48;7.63;;;10.40;99.90;;;;;;4983463;28;20498;-77
2022/04/19 07:11:58;;;;;;;13.32;7.60;;;10.50;99.90;;;;;;4999147;28;20050;-77
2022/04/19 07:14:24;;;;;;;14.18;8.40;;;10.60;99.90;;;;;;5031191;28;20030;-77
2022/04/19 07:16:52;;;;;;;13.48;7.90;;;10.70;99.90;;;;;;4981788;28;20030;-77
2022/04/19 07:19:17;;;;;;;13.57;7.32;;;10.80;99.90;;;;;;4998323;28;20414;-73
2022/04/19 07:27:11;;;;;;;13.32;7.78;;;11.20;99.90;;;;;;4979421;28;20047;-75
2022/04/19 07:29:37;;;;;;;16.30;8.93;;;11.20;99.90;;;;;;4978813;28;20046;-76
2022/04/19 07:32:02;;;;;;;12.80;7.93;;;11.30;99.90;;;;;;4998261;28;20045;-76
2022/04/19 07:34:28;;;;;;;12.77;7.72;;;11.30;99.90;;;;;;5016333;28;20042;-75
2022/04/19 07:36:56;;;;;;;13.75;8.05;;;11.40;99.90;;;;;;4982145;28;20406;-75
2022/04/19 07:39:21;;;;;;;13.63;7.88;;;11.50;99.90;;;;;;5032265;28;20052;-75
2022/04/19 07:41:47;;;;;;;13.60;8.75;;;11.60;99.90;;;;;;5000322;28;20042;-76
2022/04/19 07:44:15;;;;;;;14.57;7.30;;;11.70;99.90;;;;;;4998004;28;20406;-76
2022/04/19 07:46:42;;;;;;;12.20;7.00;;;11.70;99.90;;;;;;5031155;28;20042;-76
2022/04/19 07:49:08;;;;;;;11.05;7.40;;;11.80;99.90;;;;;;4998387;28;20383;-75
2022/04/19 07:51:35;;;;;;;12.32;7.70;;;11.90;99.90;;;;;;4982847;28;20517;-75
2022/04/19 07:54:01;;;;;;;12.40;8.00;;;12.00;99.90;;;;;;4997867;28;20046;-75
2022/04/19 07:56:27;;;;;;;14.18;8.07;;;12.10;99.90;;;;;;5031032;28;20038;-76
2022/04/19 07:58:53;;;;;;;12.85;7.28;;;12.10;99.90;;;;;;4998186;28;20034;-76
2022/04/19 08:01:19;;;;;;;13.45;7.68;;;12.30;99.90;;;;;;4977889;28;20051;-76
2022/04/19 08:03:45;;;;;;;11.75;7.13;;;12.40;99.90;;;;;;5011779;28;20047;-75
2022/04/19 08:06:11;;;;;;;11.77;7.22;;;12.50;99.90;;;;;;4979835;28;20088;-76
2022/04/19 08:08:37;;;;;;;11.43;5.95;;;12.60;99.90;;;;;;5025821;28;20140;-75
2022/04/19 08:11:04;;;;;;;10.50;6.65;;;12.70;99.90;;;;;;4990751;28;20038;-76
2022/04/19 08:13:30;;;;;;;11.93;6.00;;;12.70;99.90;;;;;;4996694;28;20038;-75
2022/04/19 08:15:56;;;;;;;12.52;6.25;;;12.80;99.40;;;;;;4998262;28;20038;-75
2022/04/19 08:18:22;;;;;;;11.68;6.55;;;12.80;99.60;;;;;;4978769;28;20045;-75
2022/04/19 08:20:48;;;;;;;10.43;5.70;;;12.90;99.30;;;;;;4977895;28;20042;-76
2022/04/19 08:23:14;;;;;;;10.68;5.55;;;13.00;98.80;;;;;;4994625;28;20086;-75
2022/04/19 08:25:43;;;;;;;11.48;5.55;;;13.20;98.00;;;;;;4992219;28;20081;-76
2022/04/19 08:28:09;;;;;;;12.13;6.18;;;13.20;97.90;;;;;;4979057;28;20062;-75
2022/04/19 08:30:34;;;;;;;11.20;5.50;;;13.30;95.90;;;;;;4997344;28;20086;-76
2022/04/19 08:33:00;;;;;;;10.90;5.75;;;13.30;96.40;;;;;;4991727;28;20077;-76
2022/04/19 08:35:26;;;;;;;10.15;5.40;;;13.50;98.10;;;;;;4975652;28;20038;-76
2022/04/19 08:37:52;;;;;;;9.60;5.20;;;13.60;96.50;;;;;;4983733;28;20092;-76
2022/04/19 08:40:18;;;;;;;9.18;5.43;;;13.70;94.50;;;;;;4994348;28;20034;-76
2022/04/19 08:42:45;;;;;;;10.15;5.05;;;13.70;96.70;;;;;;4977895;28;20502;-75
2022/04/19 08:45:13;;;;;;;10.13;4.95;;;13.90;96.60;;;;;;4993984;28;20042;-75
2022/04/19 08:47:41;;;;;;;9.43;4.70;;;14.00;91.90;;;;;;5025685;28;20040;-73
2022/04/19 08:50:12;;;;;;;9.55;4.65;;;14.10;93.50;;;;;;4978512;28;20517;-73
2022/04/19 08:52:38;;;;;;;7.68;3.90;;;14.20;91.30;;;;;;5026858;28;20449;-73
2022/04/19 08:57:50;;;;;;;7.20;3.10;;;14.20;69.10;;;;;;4993444;28;20050;-75
2022/04/19 09:00:16;;;;;;;6.03;2.70;;;14.20;66.60;;;;;;4994235;28;20060;-74
2022/04/19 09:02:42;;;;;;;5.05;2.60;;;14.40;74.60;;;;;;5006787;28;20479;-74
2022/04/19 09:05:27;;;;;;;6.07;2.72;;;14.50;67.20;;;;;;4991095;28;20034;-74
2022/04/19 09:07:57;;;;;;;5.45;1.95;;;14.60;63.60;;;;;;4993667;28;20062;-75
2022/04/19 09:10:29;;;;;;;5.45;2.00;;;14.50;60.40;;;;;;4979139;28;20053;-75
2022/04/19 09:13:04;;;;;;;;;;;14.70;66.30;;;;;;4994513;28;20042;-74
2022/04/19 09:15:39;;;;;;;5.55;1.60;;;14.80;66.40;;;;;;4993872;28;19917;-74
2022/04/19 09:18:26;;;;;;;3.63;1.60;;;15.00;65.60;;;;;;5025046;28;20054;-76
2022/04/19 09:20:53;;;;;;;4.90;1.70;;;15.00;59.90;;;;;;5018806;28;20050;-77
2022/04/19 09:23:19;;;;;;;4.72;2.15;;;14.90;57.20;;;;;;5030278;28;20066;-77
2022/04/19 09:25:45;;;;;;;6.55;1.95;;;14.90;56.90;;;;;;4975715;28;20570;-76
2022/04/19 09:28:16;;;;;;;6.28;1.95;;;14.90;60.20;;;;;;4993020;28;20039;-76
2022/04/19 09:30:43;;;;;;;4.50;1.92;;;15.20;64.00;;;;;;4992423;28;20047;-76
2022/04/19 09:33:09;;;;;;;3.83;1.70;;;15.40;63.40;;;;;;4976402;28;20042;-76
2022/04/19 09:35:50;;;;;;;4.20;1.90;;;15.40;64.40;;;;;;4992207;28;20048;-74
2022/04/19 09:38:17;;;;;;;5.55;2.00;;;15.60;62.80;;;;;;4994409;28;20039;-76
2022/04/19 09:40:48;;;;;;;4.43;2.10;;;15.60;63.00;;;;;;5007958;28;20038;-76
2022/04/19 09:43:21;;;;;;;5.15;2.30;;;15.70;61.40;;;;;;5024295;28;20075;-76
2022/04/19 09:45:56;;;;;;;7.05;2.38;;;15.50;58.40;;;;;;4999454;28;20053;-77
2022/04/19 09:48:37;;;;;;;4.20;1.90;;;15.50;58.90;;;;;;4989541;28;20046;-76
2022/04/19 09:51:08;;;;;;;4.72;2.55;;;15.60;61.90;;;;;;4992983;28;20038;-76
2022/04/19 09:53:41;;;;;;;3.88;1.73;;;15.80;62.50;;;;;;4993205;28;20034;-77
2022/04/19 09:56:33;;;;;;;6.13;1.90;;;15.90;61.10;;;;;;4993159;28;20038;-75
2022/04/19 09:59:02;;;;;;;4.25;2.20;;;16.00;61.00;;;;;;4975325;28;20475;-76
2022/04/19 10:09:39;;;;;;;5.13;2.22;;;16.30;61.80;;;;;;5009117;28;20129;-76
2022/04/19 10:12:07;;;;;;;5.28;2.55;;;16.40;59.70;;;;;;4993559;28;20038;-76
2022/04/19 10:14:34;;;;;;;5.30;2.05;;;16.40;62.30;;;;;;5022108;28;20038;-76
2022/04/19 10:17:01;;;;;;;6.05;2.28;;;16.40;57.20;;;;;;4974959;28;20034;-76
2022/04/19 10:19:28;;;;;;;6.03;2.10;;;16.60;59.10;;;;;;4973033;28;20034;-75
2022/04/19 10:21:58;;;;;;;4.65;2.30;;;16.60;60.80;;;;;;4996716;28;20546;-76
2022/04/19 10:24:24;;;;;;;5.07;2.53;;;16.70;60.00;;;;;;4991409;28;20042;-76
2022/04/19 10:26:54;;;;;;;5.25;2.60;;;16.30;58.40;;;;;;4992823;28;20054;-77
2022/04/19 10:29:22;;;;;;;5.72;2.60;;;16.60;59.50;;;;;;4992261;28;20085;-76
2022/04/19 10:32:02;;;;;;;7.75;2.40;;;16.60;62.70;;;;;;4992268;28;20046;-76
2022/04/19 10:34:33;;;;;;;4.85;2.38;;;16.90;63.60;;;;;;4991927;28;20042;-76
2022/04/19 10:37:23;;;;;;;5.23;2.40;;;17.00;63.70;;;;;;4992209;28;20046;-76
2022/04/19 10:40:12;;;;;;;5.68;2.42;;;17.10;60.90;;;;;;5024291;28;20030;-77
2022/04/19 10:42:40;;;;;;;5.55;2.42;;;17.00;59.00;;;;;;4992364;28;20133;-77
2022/04/19 10:45:18;;;;;;;5.82;2.17;;;16.90;60.10;;;;;;5025371;28;20053;-77
2022/04/19 10:47:58;;;;;;;5.68;2.70;;;16.90;58.40;;;;;;5025277;28;20442;-77
2022/04/19 10:50:44;;;;;;;4.43;2.40;;;16.90;61.70;;;;;;4975977;28;20046;-76
2022/04/19 10:53:13;;;;;;;5.25;3.17;;;17.10;58.30;;;;;;4992150;28;20073;-77
2022/04/19 10:56:05;;;;;;;6.55;2.75;;;16.90;57.90;;;;;;4992557;28;20046;-76
2022/04/19 10:58:38;;;;;;;6.03;3.07;;;17.10;61.00;;;;;;4992524;28;20161;-76
2022/04/19 11:01:05;;;;;;;7.38;3.22;;;17.10;58.30;;;;;;5008810;28;20169;-76
2022/04/19 11:03:34;;;;;;;6.72;2.83;;;17.10;60.30;;;;;;5025110;28;20390;-76
2022/04/19 11:06:02;;;;;;;5.40;2.97;;;17.20;58.60;;;;;;4992472;28;20522;-77
2022/04/19 11:08:31;;;;;;;8.38;3.35;;;17.10;58.60;;;;;;4975158;28;20042;-76
2022/04/19 11:11:02;;;;;;;5.90;3.10;;;17.00;58.10;;;;;;5024832;28;20045;-77
2022/04/19 11:13:37;;;;;;;7.60;3.13;;;17.00;59.90;;;;;;5008880;28;20038;-78
2022/04/19 11:16:07;;;;;;;6.40;3.00;;;17.10;57.90;;;;;;4975809;28;20487;-76
2022/04/19 11:18:52;;;;;;;6.05;3.17;;;17.10;58.90;;;;;;5024823;28;20060;-76
2022/04/19 11:21:59;;;;;;;6.60;3.40;;;17.10;62.00;;;;;;4992036;28;20384;-77
2022/04/19 11:25:02;;;;;;;9.88;3.15;;;17.00;59.90;;;;;;5015818;28;20055;-77
2022/04/19 11:27:52;;;;;;;8.35;3.22;;;17.20;60.10;;;;;;4972777;28;20083;-77
2022/04/19 11:30:18;;;;;;;7.93;3.17;;;17.30;58.50;;;;;;4972759;28;20121;-77
2022/04/19 11:32:50;;;;;;;5.40;3.10;;;17.20;58.40;;;;;;4972772;28;20039;-76
2022/04/19 11:35:16;;;;;;;5.72;3.17;;;17.20;58.40;;;;;;4972470;28;20078;-77
2022/04/19 11:37:43;;;;;;;5.97;2.45;;;17.30;60.30;;;;;;4972410;28;20092;-76
2022/04/19 11:48:41;;;;;;;6.13;3.17;;;17.40;58.40;;;;;;5008660;28;20050;-77
2022/04/19 11:51:11;;;;;;;6.63;3.55;;;17.40;56.10;;;;;;5008552;28;20073;-77
2022/04/19 11:53:37;;;;;;;7.47;2.60;;;17.50;54.80;;;;;;4960364;28;20042;-77
2022/04/19 11:56:04;;;;;;;5.05;2.30;;;17.60;57.60;;;;;;4975802;28;20097;-77
2022/04/19 11:58:31;;;;;;;5.60;2.67;;;17.50;55.70;;;;;;4976459;28;20047;-77
2022/04/19 12:00:58;;;;;;;4.93;2.40;;;17.30;54.10;;;;;;4976510;28;20405;-77
2022/04/19 12:03:26;;;;;;;6.65;2.50;;;17.40;56.40;;;;;;4975865;28;20049;-77
2022/04/19 12:06:03;;;;;;;7.00;3.08;;;17.30;54.90;;;;;;4959483;28;20541;-77
2022/04/19 12:08:37;;;;;;;6.35;2.30;;;17.30;56.60;;;;;;4960021;28;20130;-77
2022/04/19 12:11:07;;;;;;;6.45;2.35;;;17.40;56.70;;;;;;4984854;28;20165;-77
2022/04/19 12:13:34;;;;;;;5.80;2.40;;;17.40;56.20;;;;;;5027673;28;20507;-77
2022/04/19 12:16:00;;;;;;;5.65;2.47;;;17.50;55.90;;;;;;4981190;28;20077;-76
2022/04/19 12:18:31;;;;;;;6.82;2.78;;;17.40;57.00;;;;;;4995211;28;20038;-77
2022/04/19 12:20:56;;;;;;;3.90;1.98;;;17.50;56.90;;;;;;4994745;28;20510;-74
2022/04/19 12:23:22;;;;;;;7.88;1.95;;;17.60;55.50;;;;;;4978976;28;20085;-75
2022/04/19 12:26:08;;;;;;;6.25;2.40;;;17.50;55.50;;;;;;4994677;28;20046;-75
2022/04/19 12:28:42;;;;;;;4.55;2.03;;;17.60;55.70;;;;;;4994767;28;20046;-76
2022/04/19 12:31:26;;;;;;;5.72;2.50;;;17.60;55.80;;;;;;5027370;28;20089;-75
2022/04/19 12:33:54;;;;;;;4.57;2.22;;;17.60;55.10;;;;;;4959436;28;20051;-76
2022/04/19 12:36:22;;;;;;;5.03;2.03;;;17.70;55.10;;;;;;4991973;28;20053;-77
2022/04/19 12:39:01;;;;;;;5.35;2.30;;;17.70;54.80;;;;;;4975088;28;20039;-76
2022/04/19 12:41:45;;;;;;;6.75;2.60;;;17.70;55.40;;;;;;4975127;28;20058;-76
2022/04/19 12:44:16;;;;;;;5.50;2.20;;;17.80;56.10;;;;;;4974992;28;20053;-77
2022/04/19 12:46:51;;;;;;;4.88;2.50;;;17.80;57.10;;;;;;4975366;28;20080;-76
2022/04/19 12:49:22;;;;;;;5.80;2.70;;;17.70;55.50;;;;;;5007993;28;20047;-76
2022/04/19 12:52:01;;;;;;;7.07;3.05;;;17.80;57.60;;;;;;4964456;28;20034;-77
2022/04/19 12:54:28;;;;;;;5.35;2.70;;;17.70;54.50;;;;;;4994137;28;20101;-76
2022/04/19 12:57:00;;;;;;;6.43;3.20;;;17.70;54.60;;;;;;4993949;28;20038;-77
2022/04/19 12:59:26;;;;;;;6.00;2.92;;;17.60;56.20;;;;;;4994540;28;20042;-77
2022/04/19 13:01:51;;;;;;;9.18;3.28;;;17.70;56.50;;;;;;4994117;28;20061;-77
2022/04/19 13:04:17;;;;;;;4.07;2.13;;;17.60;55.40;;;;;;4978335;28;20050;-77
2022/04/19 13:12:19;;;;;;;4.60;2.42;;;17.30;53.60;;;;;;4994390;28;20441;-77
2022/04/19 13:14:50;;;;;;;6.38;2.60;;;17.40;57.20;;;;;;5010189;28;20050;-77
2022/04/19 13:17:16;;;;;;;5.38;2.50;;;17.60;59.40;;;;;;4993751;28;20510;-77
2022/04/19 13:19:43;;;;;;;5.20;2.47;;;17.50;55.80;;;;;;5010319;28;20482;-77
2022/04/19 13:22:09;;;;;;;5.75;2.58;;;17.50;55.60;;;;;;5010207;28;20046;-77
2022/04/19 13:24:36;;;;;;;6.28;2.90;;;17.60;54.30;;;;;;4992992;28;20042;-77
2022/04/19 13:27:03;;;;;;;5.68;2.35;;;17.60;55.50;;;;;;5010277;28;20045;-78
2022/04/19 13:29:29;;;;;;;6.35;2.85;;;17.60;55.50;;;;;;5010168;28;20042;-77
2022/04/19 13:31:55;;;;;;;6.43;2.90;;;17.60;54.50;;;;;;4993566;28;20089;-77
2022/04/19 13:34:21;;;;;;;5.63;2.63;;;17.50;56.40;;;;;;5010066;28;20373;-77
2022/04/19 13:36:47;;;;;;;10.57;3.00;;;17.60;56.10;;;;;;4993681;28;20390;-77